Anapolis, Brazil
Current Conditions -  °F | °C
As of 12:00 PM on Friday 28 Nov 2014 (Local Time) from SBAN Reporting Station
Broken Clouds Broken Clouds  
Wind Chill: 77°   Ceiling: 2000
Heat Index: 79°   Visibility: 6mi
Dew Point: 66°   Wind: 3mph
Humidity: 69%   Direction: 320°NW
Pressure: 30.12"   Gusts: NA
Location:  16.32°S, 48.96°W
Report Text: SBAN 281400Z 32003KT 9999 BKN020 FEW030TCU SCT100 25/19 Q1020
Loading
Personal Weather Stations






























Interactive Weather Map New forecast layout! Learn more

10-Day Weather Forecast

Advertisements
Track Severe Weather on mobile